createdAt,value
2018-12-30T00:02:41.033Z,21.57
2018-12-30T00:05:09.905Z,21.30
2018-12-30T00:07:38.082Z,21.43
2018-12-30T00:10:06.136Z,20.90
2018-12-30T00:12:34.054Z,21.07
2018-12-30T00:15:02.220Z,19.67
2018-12-30T00:17:30.274Z,19.10
2018-12-30T00:19:58.513Z,18.73
2018-12-30T00:22:26.361Z,18.70
2018-12-30T00:24:54.255Z,17.63
2018-12-30T00:27:22.159Z,18.03
2018-12-30T00:29:50.147Z,17.17
2018-12-30T00:32:18.138Z,17.33
2018-12-30T00:34:46.006Z,16.53
2018-12-30T00:37:14.047Z,15.77
2018-12-30T00:39:41.895Z,15.30
2018-12-30T00:42:09.799Z,15.53
2018-12-30T00:44:37.665Z,15.23
2018-12-30T00:47:05.602Z,14.57
2018-12-30T00:49:33.598Z,14.80
2018-12-30T00:52:01.503Z,18.10
2018-12-30T00:54:29.491Z,18.63
2018-12-30T00:56:57.459Z,20.00
2018-12-30T00:59:25.422Z,21.57
2018-12-30T01:01:53.423Z,22.20
2018-12-30T01:04:21.378Z,23.10
2018-12-30T01:06:49.344Z,22.00
2018-12-30T01:09:17.237Z,22.50
2018-12-30T01:11:45.094Z,22.27
2018-12-30T01:14:12.940Z,23.37
2018-12-30T01:16:40.848Z,24.57
2018-12-30T01:19:08.934Z,23.40
2018-12-30T01:21:36.836Z,23.20
2018-12-30T01:24:04.818Z,22.33
2018-12-30T01:26:32.717Z,23.17
2018-12-30T01:29:00.634Z,21.93
2018-12-30T01:31:28.527Z,20.83
2018-12-30T01:33:56.599Z,20.33
2018-12-30T01:36:24.494Z,20.07
2018-12-30T01:38:52.334Z,20.60
2018-12-30T01:41:20.358Z,21.57
2018-12-30T01:43:48.248Z,20.57
2018-12-30T01:46:16.506Z,21.60
2018-12-30T01:48:44.464Z,20.97
2018-12-30T01:51:12.397Z,22.00
2018-12-30T01:53:40.311Z,23.27
2018-12-30T01:56:08.139Z,21.63
2018-12-30T01:58:36.211Z,22.23
2018-12-30T02:01:04.355Z,22.20
2018-12-30T02:03:32.291Z,21.50
2018-12-30T02:06:00.253Z,22.23
2018-12-30T02:08:28.205Z,21.93
2018-12-30T02:10:56.527Z,21.33
2018-12-30T02:13:25.564Z,22.27
2018-12-30T02:15:53.512Z,23.23
2018-12-30T02:18:21.423Z,23.50
2018-12-30T02:20:49.411Z,23.83
2018-12-30T02:23:17.270Z,23.57
2018-12-30T02:25:45.208Z,23.63
2018-12-30T02:28:13.015Z,23.90
2018-12-30T02:30:40.914Z,23.93
2018-12-30T02:33:08.873Z,23.63
2018-12-30T02:35:36.807Z,24.47
2018-12-30T02:38:04.755Z,23.97
2018-12-30T02:40:33.115Z,24.13
2018-12-30T02:43:00.975Z,24.07
2018-12-30T02:45:29.776Z,24.33
2018-12-30T02:47:57.583Z,23.83
2018-12-30T02:50:25.547Z,23.70
2018-12-30T02:52:53.430Z,25.47
2018-12-30T02:55:21.323Z,25.90
2018-12-30T02:57:49.333Z,26.67
2018-12-30T03:00:17.267Z,26.77
2018-12-30T03:02:45.131Z,31.90
2018-12-30T03:05:13.199Z,37.07
2018-12-30T03:07:41.356Z,34.53
2018-12-30T03:10:09.256Z,31.30
2018-12-30T03:12:37.345Z,29.53
2018-12-30T03:15:05.279Z,27.50
2018-12-30T03:17:33.228Z,26.13
2018-12-30T03:20:01.179Z,25.20
2018-12-30T03:22:29.075Z,23.50
2018-12-30T03:24:57.079Z,22.83
2018-12-30T03:31:08.714Z,19.70
2018-12-30T03:33:36.629Z,18.57
2018-12-30T03:36:04.605Z,19.30
2018-12-30T03:38:32.990Z,20.17
2018-12-30T03:41:01.831Z,19.63
2018-12-30T03:43:29.731Z,20.60
2018-12-30T03:45:57.574Z,23.67
2018-12-30T03:48:25.518Z,25.10
2018-12-30T03:50:53.364Z,24.87
2018-12-30T03:53:21.289Z,25.43
2018-12-30T03:55:49.312Z,23.57
2018-12-30T03:58:17.142Z,22.90
2018-12-30T04:00:45.050Z,23.03
2018-12-30T04:03:12.916Z,22.83
2018-12-30T04:05:40.918Z,23.27
2018-12-30T04:08:08.811Z,23.47
2018-12-30T04:10:36.816Z,22.60
2018-12-30T04:13:04.694Z,23.20
2018-12-30T04:15:32.553Z,22.07
2018-12-30T04:18:00.525Z,21.80
2018-12-30T04:20:29.828Z,21.07
2018-12-30T04:22:57.820Z,20.90
2018-12-30T04:25:25.843Z,21.20
2018-12-30T04:27:53.884Z,20.07
2018-12-30T04:30:21.762Z,19.93
2018-12-30T04:32:50.112Z,20.17
2018-12-30T04:35:18.288Z,19.50
2018-12-30T04:37:46.359Z,18.87
2018-12-30T04:40:14.431Z,18.97
2018-12-30T04:42:42.849Z,19.37
2018-12-30T04:45:10.792Z,18.47
2018-12-30T04:47:38.808Z,18.53
2018-12-30T04:50:06.724Z,19.53
2018-12-30T04:52:34.539Z,18.73
2018-12-30T04:55:02.453Z,18.37
2018-12-30T04:57:30.315Z,17.70
2018-12-30T04:59:58.171Z,18.70
2018-12-30T05:02:26.093Z,18.43
2018-12-30T05:04:54.535Z,18.07
2018-12-30T05:07:22.769Z,18.10
2018-12-30T05:09:50.658Z,17.93
2018-12-30T05:12:19.052Z,18.47
2018-12-30T05:14:47.080Z,18.33
2018-12-30T05:17:15.439Z,17.63
2018-12-30T05:19:43.447Z,17.97
2018-12-30T05:22:19.335Z,17.87
2018-12-30T05:24:47.312Z,18.30
2018-12-30T05:27:15.211Z,18.27
2018-12-30T05:29:43.179Z,18.33
2018-12-30T05:32:11.154Z,18.07
2018-12-30T05:34:39.427Z,18.10
2018-12-30T05:37:07.424Z,20.17
2018-12-30T05:39:35.359Z,19.87
2018-12-30T05:42:03.319Z,17.40
2018-12-30T05:44:31.149Z,17.70
2018-12-30T05:46:59.115Z,18.27
2018-12-30T05:49:26.930Z,18.70
2018-12-30T05:51:54.935Z,17.33
2018-12-30T05:54:22.858Z,17.30
2018-12-30T05:56:50.682Z,18.27
2018-12-30T05:59:18.619Z,17.87
2018-12-30T06:01:46.493Z,17.63
2018-12-30T06:04:14.383Z,17.27
2018-12-30T06:06:42.418Z,19.10
2018-12-30T06:09:10.468Z,17.97
2018-12-30T06:11:38.365Z,19.43
2018-12-30T06:14:06.363Z,18.80
2018-12-30T06:16:34.936Z,18.50
2018-12-30T06:19:02.830Z,18.17
2018-12-30T06:21:30.683Z,17.97
2018-12-30T06:23:58.724Z,17.63
2018-12-30T06:26:26.618Z,18.07
2018-12-30T06:28:54.623Z,17.30
2018-12-30T06:31:22.463Z,17.27
2018-12-30T06:33:50.355Z,17.13
2018-12-30T06:36:18.455Z,16.50
2018-12-30T06:38:46.360Z,16.60
2018-12-30T06:41:14.310Z,15.40
2018-12-30T06:43:42.318Z,16.03
2018-12-30T06:46:10.259Z,16.77
2018-12-30T06:48:57.575Z,16.00
2018-12-30T06:51:25.943Z,16.57
2018-12-30T06:53:53.859Z,17.37
2018-12-30T06:56:21.790Z,16.10
2018-12-30T06:58:49.684Z,16.53
2018-12-30T07:01:17.703Z,16.70
2018-12-30T07:03:45.690Z,16.80
2018-12-30T07:06:13.602Z,25.73
2018-12-30T07:08:41.507Z,24.47
2018-12-30T07:11:18.671Z,18.17
2018-12-30T07:13:46.587Z,17.23
2018-12-30T07:16:14.543Z,18.17
2018-12-30T07:18:42.425Z,18.43
2018-12-30T07:21:10.239Z,17.97
2018-12-30T07:23:38.121Z,19.03
2018-12-30T07:26:06.095Z,17.73
2018-12-30T07:28:34.015Z,18.80
2018-12-30T07:31:01.839Z,19.77
2018-12-30T07:33:29.837Z,18.40
2018-12-30T07:36:10.244Z,17.47
2018-12-30T07:38:38.550Z,34.53
2018-12-30T07:41:06.675Z,45.93
2018-12-30T07:43:34.595Z,34.20
2018-12-30T07:46:02.638Z,24.67
2018-12-30T07:48:30.979Z,22.80
2018-12-30T07:50:58.950Z,23.00
2018-12-30T07:53:26.880Z,20.43
2018-12-30T07:55:54.867Z,21.17
2018-12-30T07:58:22.747Z,23.03
2018-12-30T08:00:50.696Z,21.40
2018-12-30T08:03:18.576Z,22.77
2018-12-30T08:05:46.400Z,27.47
2018-12-30T08:08:14.290Z,29.03
2018-12-30T08:10:42.248Z,28.90
2018-12-30T08:13:10.135Z,30.73
2018-12-30T08:15:38.070Z,27.50
2018-12-30T08:18:06.004Z,28.97
2018-12-30T08:20:33.875Z,32.80
2018-12-30T08:23:01.726Z,37.77
2018-12-30T08:25:30.920Z,32.90
2018-12-30T08:27:58.724Z,30.27
2018-12-30T08:30:26.754Z,30.60
2018-12-30T08:32:54.699Z,33.97
2018-12-30T08:35:23.031Z,34.13
2018-12-30T08:37:50.977Z,34.50
2018-12-30T08:40:19.156Z,33.00
2018-12-30T08:42:47.120Z,33.43
2018-12-30T08:45:15.902Z,30.77
2018-12-30T08:47:43.869Z,35.93
2018-12-30T08:50:11.731Z,36.37
2018-12-30T08:52:39.648Z,35.57
2018-12-30T08:55:07.651Z,34.10
2018-12-30T08:57:35.587Z,36.23
2018-12-30T09:00:04.407Z,50.47
2018-12-30T09:02:32.366Z,43.43
2018-12-30T09:05:00.285Z,38.57
2018-12-30T09:07:28.288Z,35.07
2018-12-30T09:09:56.239Z,33.17
2018-12-30T09:12:24.199Z,28.67
2018-12-30T09:14:58.782Z,26.97
2018-12-30T09:17:27.022Z,26.20
2018-12-30T09:19:54.947Z,26.27
2018-12-30T09:22:22.851Z,26.07
2018-12-30T09:24:50.756Z,24.97
2018-12-30T09:27:18.730Z,23.80
2018-12-30T09:29:46.731Z,23.50
2018-12-30T09:32:14.999Z,23.10
2018-12-30T09:34:42.920Z,20.57
2018-12-30T09:37:10.930Z,19.63
2018-12-30T09:39:38.917Z,19.73
2018-12-30T09:42:06.890Z,22.07
2018-12-30T09:44:34.790Z,22.57
2018-12-30T09:47:02.884Z,21.97
2018-12-30T09:49:31.243Z,21.90
2018-12-30T09:51:59.231Z,24.73
2018-12-30T09:54:27.391Z,30.23
2018-12-30T09:56:55.191Z,39.37
2018-12-30T09:59:23.182Z,27.30
2018-12-30T10:01:51.339Z,21.97
2018-12-30T10:04:19.275Z,19.70
2018-12-30T10:06:47.188Z,19.40
2018-12-30T10:09:15.055Z,18.07
2018-12-30T10:11:42.931Z,17.17
2018-12-30T10:14:20.852Z,16.63
2018-12-30T10:16:48.791Z,16.57
2018-12-30T10:19:16.776Z,16.67
2018-12-30T10:21:44.642Z,22.47
2018-12-30T10:24:12.575Z,21.83
2018-12-30T10:26:40.475Z,20.37
2018-12-30T10:29:08.447Z,21.10
2018-12-30T10:31:36.437Z,22.43
2018-12-30T10:34:04.291Z,22.43
2018-12-30T10:36:32.175Z,22.43
2018-12-30T10:39:00.126Z,21.47
2018-12-30T10:41:28.078Z,21.93
2018-12-30T10:43:56.260Z,20.90
2018-12-30T10:46:24.111Z,22.77
2018-12-30T10:48:52.045Z,20.73
2018-12-30T10:51:20.069Z,21.67
2018-12-30T10:53:47.938Z,20.33
2018-12-30T10:56:15.939Z,20.87
2018-12-30T10:58:44.083Z,23.10
2018-12-30T11:01:12.115Z,20.90
2018-12-30T11:03:40.137Z,21.90
2018-12-30T11:06:08.195Z,20.37
2018-12-30T11:08:36.175Z,20.20
2018-12-30T11:11:04.069Z,20.27
2018-12-30T11:13:32.031Z,20.20
2018-12-30T11:16:00.035Z,19.90
2018-12-30T11:18:27.997Z,18.53
2018-12-30T11:20:55.927Z,17.57
2018-12-30T11:23:23.952Z,17.20
2018-12-30T11:25:51.895Z,29.30
2018-12-30T11:28:19.787Z,26.30
2018-12-30T11:30:47.748Z,17.30
2018-12-30T11:33:15.838Z,16.10
2018-12-30T11:35:43.855Z,14.33
2018-12-30T11:38:12.430Z,14.90
2018-12-30T11:40:40.289Z,13.83
2018-12-30T11:43:08.263Z,14.73
2018-12-30T11:45:36.688Z,14.03
2018-12-30T11:48:04.610Z,13.57
2018-12-30T11:50:32.583Z,14.90
2018-12-30T11:53:00.703Z,14.77
2018-12-30T11:55:29.648Z,14.93
2018-12-30T11:57:57.572Z,14.30
2018-12-30T12:00:25.456Z,14.47
2018-12-30T12:02:53.360Z,13.83
2018-12-30T12:05:21.281Z,14.93
2018-12-30T12:07:49.216Z,13.77
2018-12-30T12:10:17.647Z,13.50
2018-12-30T12:12:49.121Z,11.70
2018-12-30T12:15:38.688Z,10.33
2018-12-30T12:18:07.044Z,10.17
2018-12-30T12:20:35.351Z,10.67
2018-12-30T12:23:03.291Z,10.47
2018-12-30T12:25:31.299Z,10.87
2018-12-30T12:27:59.280Z,10.57
2018-12-30T12:30:27.411Z,10.50
2018-12-30T12:32:55.487Z,9.17
2018-12-30T12:35:23.934Z,11.13
2018-12-30T12:37:51.839Z,36.07
2018-12-30T12:40:19.963Z,18.57
2018-12-30T12:42:47.850Z,13.90
2018-12-30T12:45:16.175Z,10.70
2018-12-30T12:47:44.062Z,11.57
2018-12-30T12:50:11.959Z,10.73
2018-12-30T12:52:40.295Z,10.93
2018-12-30T12:55:08.615Z,10.60
2018-12-30T12:57:36.635Z,11.57
2018-12-30T13:00:06.617Z,11.73
2018-12-30T13:02:34.675Z,12.23
2018-12-30T13:05:02.633Z,16.00
2018-12-30T13:07:30.594Z,14.10
2018-12-30T13:09:58.434Z,11.83
2018-12-30T13:12:26.268Z,12.30
2018-12-30T13:15:23.214Z,11.10
2018-12-30T13:17:50.612Z,12.17
2018-12-30T13:20:19.386Z,11.43
2018-12-30T13:22:47.332Z,13.73
2018-12-30T13:25:15.238Z,12.37
2018-12-30T13:27:43.491Z,11.73
2018-12-30T13:30:11.443Z,12.20
2018-12-30T13:32:41.030Z,12.67
2018-12-30T13:35:09.063Z,12.37
2018-12-30T13:37:37.484Z,11.63
2018-12-30T13:40:06.127Z,13.20
2018-12-30T13:42:34.043Z,12.97
2018-12-30T13:45:02.133Z,12.73
2018-12-30T13:47:30.079Z,12.37
2018-12-30T13:49:58.320Z,12.53
2018-12-30T13:52:26.187Z,12.23
2018-12-30T13:54:54.326Z,11.67
2018-12-30T13:57:22.287Z,13.83
2018-12-30T13:59:50.192Z,11.93
2018-12-30T14:02:18.236Z,13.57
2018-12-30T14:04:46.195Z,12.90
2018-12-30T14:07:14.618Z,13.47
2018-12-30T14:09:42.530Z,13.97
2018-12-30T14:12:10.495Z,13.30
2018-12-30T14:15:14.735Z,13.00
2018-12-30T14:17:42.827Z,15.33
2018-12-30T14:20:10.786Z,13.73
2018-12-30T14:22:38.852Z,12.73
2018-12-30T14:25:07.179Z,13.53
2018-12-30T14:27:35.369Z,14.03
2018-12-30T14:30:03.851Z,13.83
2018-12-30T14:32:31.699Z,14.53
2018-12-30T14:34:59.751Z,14.13
2018-12-30T14:37:27.819Z,14.70
2018-12-30T14:39:55.707Z,14.37
2018-12-30T14:42:23.542Z,15.07
2018-12-30T14:44:51.454Z,17.83
2018-12-30T14:47:19.448Z,22.40
2018-12-30T14:49:47.420Z,23.83
2018-12-30T14:52:15.307Z,21.93
2018-12-30T14:54:43.158Z,23.00
2018-12-30T14:57:11.162Z,26.00
2018-12-30T14:59:39.166Z,29.13
2018-12-30T15:02:07.170Z,30.23
2018-12-30T15:04:35.232Z,36.93
2018-12-30T15:07:03.140Z,39.57
2018-12-30T15:09:35.655Z,44.50
2018-12-30T15:12:00.853Z,43.80
2018-12-30T15:14:53.102Z,38.40
2018-12-30T15:17:21.115Z,32.77
2018-12-30T15:19:49.045Z,40.43
2018-12-30T15:22:17.068Z,40.40
2018-12-30T15:24:45.061Z,34.43
2018-12-30T15:27:12.989Z,34.63
2018-12-30T15:29:41.071Z,31.10
2018-12-30T15:32:08.950Z,26.83
2018-12-30T15:34:36.870Z,27.10
2018-12-30T15:37:04.782Z,27.50
2018-12-30T15:39:32.917Z,27.50
2018-12-30T15:42:00.833Z,23.87
2018-12-30T15:44:28.798Z,22.87
2018-12-30T15:46:56.688Z,20.40
2018-12-30T15:49:24.632Z,19.63
2018-12-30T15:51:52.531Z,16.60
2018-12-30T15:54:20.444Z,14.37
2018-12-30T15:56:48.375Z,14.33
2018-12-30T15:59:16.751Z,15.00
2018-12-30T16:01:44.727Z,15.90
2018-12-30T16:04:12.715Z,14.17
2018-12-30T16:06:40.721Z,14.90
2018-12-30T16:09:08.727Z,16.57
2018-12-30T16:11:36.743Z,15.33
2018-12-30T16:14:04.769Z,15.93
2018-12-30T16:16:32.694Z,14.17
2018-12-30T16:19:00.656Z,14.60
2018-12-30T16:21:28.668Z,15.37
2018-12-30T16:23:56.604Z,16.80
2018-12-30T16:26:24.819Z,14.03
2018-12-30T16:28:52.710Z,13.27
2018-12-30T16:31:27.894Z,12.27
2018-12-30T16:33:50.387Z,12.93
2018-12-30T16:36:18.284Z,11.77
2018-12-30T16:38:46.617Z,10.80
2018-12-30T16:41:14.592Z,10.10
2018-12-30T16:43:42.535Z,13.10
2018-12-30T16:46:10.533Z,14.40
2018-12-30T16:48:38.466Z,16.87
2018-12-30T16:51:40.472Z,21.00
2018-12-30T16:55:21.179Z,24.37
2018-12-30T16:59:05.315Z,30.13
2018-12-30T17:02:26.410Z,15.80
2018-12-30T17:06:21.751Z,10.97
2018-12-30T17:09:37.524Z,10.03
2018-12-30T17:12:41.899Z,10.43
2018-12-30T17:15:54.027Z,10.07
2018-12-30T17:18:19.933Z,11.40
2018-12-30T17:20:47.998Z,12.50
2018-12-30T17:23:15.975Z,15.00
2018-12-30T17:25:43.885Z,20.73
2018-12-30T17:28:11.919Z,19.60
2018-12-30T17:30:39.842Z,16.13
2018-12-30T17:33:07.895Z,15.00
2018-12-30T17:35:36.071Z,12.00
2018-12-30T17:38:04.254Z,11.90
2018-12-30T17:40:38.376Z,13.13
2018-12-30T17:43:02.115Z,12.40
2018-12-30T17:45:30.806Z,12.43
2018-12-30T17:47:59.080Z,10.77
2018-12-30T17:50:27.726Z,10.13
2018-12-30T17:52:55.599Z,28.43
2018-12-30T17:55:23.616Z,41.97
2018-12-30T17:57:51.571Z,29.73
2018-12-30T18:00:20.174Z,24.77
2018-12-30T18:02:48.556Z,31.37
2018-12-30T18:05:16.505Z,26.50
2018-12-30T18:07:47.575Z,19.23
2018-12-30T18:10:15.844Z,14.93
2018-12-30T18:12:43.758Z,17.47
2018-12-30T18:15:29.990Z,20.80
2018-12-30T18:17:58.006Z,21.33
2018-12-30T18:20:25.952Z,20.00
2018-12-30T18:22:53.914Z,17.57
2018-12-30T18:25:21.859Z,15.70
2018-12-30T18:27:49.807Z,17.57
2018-12-30T18:30:17.957Z,13.47
2018-12-30T18:32:45.919Z,11.47
2018-12-30T18:35:13.875Z,13.90
2018-12-30T18:37:41.731Z,17.80
2018-12-30T18:40:09.663Z,21.43
2018-12-30T18:42:37.586Z,17.07
2018-12-30T18:45:06.211Z,15.23
2018-12-30T18:47:34.173Z,14.20
2018-12-30T18:50:02.227Z,17.73
2018-12-30T18:52:30.189Z,29.43
2018-12-30T18:54:58.358Z,15.90
2018-12-30T18:57:26.336Z,10.93
2018-12-30T18:59:54.174Z,12.97
2018-12-30T19:02:22.142Z,16.27
2018-12-30T19:04:49.985Z,15.70
2018-12-30T19:07:17.994Z,13.43
2018-12-30T19:09:45.971Z,10.70
2018-12-30T19:12:14.162Z,10.73
2018-12-30T19:15:03.841Z,10.50
2018-12-30T19:17:31.889Z,15.50
2018-12-30T19:19:59.809Z,15.67
2018-12-30T19:22:27.732Z,13.50
2018-12-30T19:24:55.730Z,13.67
2018-12-30T19:27:27.405Z,14.33
2018-12-30T19:29:58.140Z,14.00
2018-12-30T19:32:27.838Z,14.80
2018-12-30T19:35:00.781Z,13.00
2018-12-30T19:37:29.503Z,12.20
2018-12-30T19:40:01.224Z,10.90
2018-12-30T19:42:33.444Z,10.17
2018-12-30T19:45:05.080Z,10.03
2018-12-30T19:47:38.050Z,12.53
2018-12-30T19:50:10.063Z,13.50
2018-12-30T19:52:42.125Z,11.70
2018-12-30T19:55:11.172Z,12.97
2018-12-30T19:57:43.096Z,11.80
2018-12-30T20:00:14.492Z,11.83
2018-12-30T20:02:46.709Z,13.00
2018-12-30T20:05:14.944Z,13.07
2018-12-30T20:07:42.848Z,11.90
2018-12-30T20:10:11.043Z,13.40
2018-12-30T20:12:39.040Z,13.23
2018-12-30T20:15:28.926Z,10.43
2018-12-30T20:17:56.866Z,9.10
2018-12-30T20:20:24.969Z,9.83
2018-12-30T20:22:52.984Z,11.97
2018-12-30T20:25:21.127Z,11.97
2018-12-30T20:27:49.090Z,12.43
2018-12-30T20:30:17.093Z,13.50
2018-12-30T20:32:44.938Z,15.67
2018-12-30T20:35:13.030Z,16.40
2018-12-30T20:37:40.981Z,12.70
2018-12-30T20:40:08.820Z,11.20
2018-12-30T20:42:36.780Z,9.90
2018-12-30T20:45:05.083Z,13.57
2018-12-30T20:47:33.072Z,19.80
2018-12-30T20:50:01.104Z,17.17
2018-12-30T20:52:29.108Z,20.97
2018-12-30T20:54:57.160Z,15.83
2018-12-30T20:57:25.083Z,13.67
2018-12-30T20:59:53.014Z,13.83
2018-12-30T21:02:21.140Z,13.73
2018-12-30T21:04:49.179Z,12.17
2018-12-30T21:07:17.151Z,14.47
2018-12-30T21:09:45.277Z,13.60
2018-12-30T21:12:14.660Z,15.07
2018-12-30T21:15:10.659Z,17.93
2018-12-30T21:17:38.646Z,16.97
2018-12-30T21:20:06.781Z,17.07
2018-12-30T21:22:34.793Z,16.83
2018-12-30T21:25:02.936Z,15.37
2018-12-30T21:27:39.562Z,14.13
2018-12-30T21:30:08.198Z,14.57
2018-12-30T21:32:36.231Z,14.70
2018-12-30T21:35:04.631Z,13.60
2018-12-30T21:37:32.707Z,12.70
2018-12-30T21:40:00.626Z,14.50
2018-12-30T21:42:28.947Z,11.87
2018-12-30T21:44:56.994Z,10.93
2018-12-30T21:47:24.910Z,12.20
2018-12-30T21:49:53.467Z,11.10
2018-12-30T21:52:21.525Z,9.80
2018-12-30T21:54:49.498Z,11.37
2018-12-30T21:57:17.486Z,12.17
2018-12-30T21:59:45.403Z,12.40
2018-12-30T22:02:13.324Z,11.60
2018-12-30T22:04:41.804Z,13.30
2018-12-30T22:07:09.711Z,16.67
2018-12-30T22:09:37.667Z,11.70
2018-12-30T22:12:05.623Z,10.80
2018-12-30T22:14:56.934Z,9.87
2018-12-30T22:17:24.689Z,8.47
2018-12-30T22:19:52.828Z,9.10
2018-12-30T22:22:20.702Z,9.77
2018-12-30T22:24:48.566Z,9.03
2018-12-30T22:27:16.503Z,8.40
2018-12-30T22:29:44.328Z,8.53
2018-12-30T22:32:12.255Z,9.23
2018-12-30T22:34:40.160Z,9.37
2018-12-30T22:37:08.131Z,8.70
2018-12-30T22:39:36.124Z,7.50
2018-12-30T22:42:03.979Z,6.73
2018-12-30T22:44:31.854Z,6.00
2018-12-30T22:46:59.702Z,5.90
2018-12-30T22:49:27.603Z,5.60
2018-12-30T22:51:55.595Z,5.27
2018-12-30T22:54:23.534Z,5.30
2018-12-30T22:56:51.523Z,5.20
2018-12-30T22:59:19.572Z,5.20
2018-12-30T23:01:48.031Z,4.93
2018-12-30T23:04:15.941Z,5.90
2018-12-30T23:06:43.913Z,5.23
2018-12-30T23:09:12.035Z,5.50
2018-12-30T23:11:40.084Z,5.00
2018-12-30T23:14:08.215Z,4.57
2018-12-30T23:16:36.099Z,4.30
2018-12-30T23:19:04.154Z,4.00
2018-12-30T23:21:32.209Z,3.53
2018-12-30T23:24:00.115Z,3.67
2018-12-30T23:26:28.127Z,4.70
2018-12-30T23:28:56.066Z,4.63
2018-12-30T23:31:23.953Z,4.57
2018-12-30T23:33:51.939Z,4.07
2018-12-30T23:36:19.787Z,3.40
2018-12-30T23:38:47.679Z,2.80
2018-12-30T23:41:15.647Z,3.00
2018-12-30T23:43:43.643Z,3.00
2018-12-30T23:46:11.646Z,3.50
2018-12-30T23:48:39.562Z,3.07
2018-12-30T23:51:07.484Z,3.07
2018-12-30T23:53:35.390Z,3.77
2018-12-30T23:56:03.462Z,5.10
2018-12-30T23:58:31.314Z,7.17
